Metcalfe, Mississippi
Current Conditions -  °F | °C
As of 6:53 PM on Saturday 22 Nov 2014 (Local Time) from KGLH Reporting Station
Clear Clear  
Wind Chill: 60°   Ceiling: Unl
Heat Index: 60°   Visibility: 10mi
Dew Point: 51°   Wind: 8mph
Humidity: 72%   Direction: 130°SE
Pressure: 30"   Gusts: NA
Location:  33.45°N, 91.01°W
Report Text: KGLH 230053Z AUTO 13007KT 10SM CLR 16/11 A3000 RMK AO2 SLP167 T01560106
Loading
Personal Weather Stations






























Interactive Weather Map New forecast layout! Learn more

10-Day Weather Forecast

Advertisements
Track Severe Weather on mobile